Weather reports worldwide

Advertisment
Newcastle, United Kingdom (3245): temperature & dewpoint: 13.08.2018 20:00:00 - 19.08.2018 20:00:00 (BST)Newcastle, United Kingdom (3245): wind speed: 13.08.2018 20:00:00 - 19.08.2018 20:00:00 (BST)Newcastle, United Kingdom (3245): wind direction: 13.08.2018 20:00:00 - 19.08.2018 20:00:00 (BST)Newcastle, United Kingdom (3245): visibility: 13.08.2018 20:00:00 - 19.08.2018 20:00:00 (BST)
Date & Time tt [°C] td [°C] ff [km/h] ff [kn] dd vv [km]
19.08.2018 20:00:00 15,0 13,0 11 6 N 10
19.08.2018 19:00:00 16,0 13,0 13 7 N 10
19.08.2018 18:00:00 17,0 14,0 16 9 NNE 10
19.08.2018 17:00:00 19,0 15,0 18 10 N 10
19.08.2018 16:00:00 20,0 16,0 18 10 N 10
19.08.2018 15:00:00 21,0 16,0 22 12 NW 10
19.08.2018 14:00:00 20,0 17,0 28 15 W 10
19.08.2018 13:00:00 20,0 16,0 26 14 W 10
19.08.2018 12:00:00 20,0 17,0 28 15 W 10
19.08.2018 11:00:00 19,0 17,0 21 11 W 10
19.08.2018 10:00:00 19,0 16,0 13 7 WSW 10
19.08.2018 09:00:00 18,0 17,0 8 4 SSW 10
19.08.2018 08:00:00 17,0 17,0 8 4 S 9
19.08.2018 07:00:00 17,0 16,0 11 6 S 9
19.08.2018 06:00:00 17,0 17,0 8 4 SSE 9
19.08.2018 05:00:00 17,0 16,0 5 3 - 6
19.08.2018 04:00:00 16,0 16,0 5 3 - 9
19.08.2018 03:00:00 16,0 16,0 4 2 - 9
19.08.2018 02:00:00 17,0 15,0 8 4 S 10
19.08.2018 01:00:00 17,0 15,0 5 3 SSW 10
19.08.2018 00:00:00 17,0 14,0 4 2 - 10
18.08.2018 23:00:00 18,0 14,0 5 3 S 10
18.08.2018 22:00:00 19,0 14,0 11 6 SW 10
18.08.2018 21:00:00 18,0 13,0 5 3 S 10
18.08.2018 20:00:00 19,0 13,0 15 8 WSW 10
18.08.2018 19:00:00 19,0 14,0 11 6 W 10
18.08.2018 18:00:00 20,0 14,0 24 13 WSW 10
18.08.2018 17:00:00 20,0 14,0 24 13 WSW 10
18.08.2018 16:00:00 20,0 14,0 18 10 SW 10
18.08.2018 15:00:00 19,0 14,0 22 12 WSW 10
18.08.2018 14:00:00 19,0 14,0 22 12 WSW 10
18.08.2018 13:00:00 19,0 14,0 22 12 WSW 10
18.08.2018 12:00:00 19,0 14,0 22 12 WSW 10
18.08.2018 11:00:00 18,0 13,0 22 12 WSW 10
18.08.2018 10:00:00 18,0 13,0 18 10 WSW 10
18.08.2018 09:00:00 17,0 13,0 11 6 SW 10
18.08.2018 08:00:00 17,0 12,0 22 12 WSW 10
18.08.2018 07:00:00 17,0 12,0 18 10 WSW 10
18.08.2018 06:00:00 17,0 13,0 21 11 WSW 10
18.08.2018 05:00:00 17,0 13,0 24 13 W 10
18.08.2018 04:00:00 17,0 13,0 24 13 WSW 10
18.08.2018 03:00:00 - - - - - -
18.08.2018 02:00:00 17,0 13,0 21 11 WSW 10
18.08.2018 01:00:00 17,0 13,0 15 8 WSW 10
18.08.2018 00:00:00 17,0 13,0 18 10 WSW 10
17.08.2018 23:00:00 17,0 13,0 15 8 SW 10
17.08.2018 22:00:00 16,0 12,0 15 8 SW 10
17.08.2018 21:00:00 16,0 12,0 11 6 SW 10
17.08.2018 20:00:00 15,0 12,0 11 6 SSW 10
17.08.2018 19:00:00 16,0 12,0 13 7 SW 10
17.08.2018 18:00:00 16,0 11,0 21 11 SW 10
17.08.2018 17:00:00 16,0 11,0 18 10 SSW 10
17.08.2018 16:00:00 15,0 10,0 22 12 SW 10
17.08.2018 15:00:00 16,0 10,0 21 11 SW 10
17.08.2018 14:00:00 17,0 9,0 21 11 SW 10
17.08.2018 13:00:00 17,0 9,0 21 11 SW 10
17.08.2018 12:00:00 16,0 9,0 21 11 WSW 10
17.08.2018 11:00:00 16,0 9,0 18 10 WSW 10
17.08.2018 10:00:00 15,0 10,0 18 10 WSW 10
17.08.2018 09:00:00 14,0 10,0 15 8 WSW 10
17.08.2018 08:00:00 14,0 10,0 11 6 WSW 10
17.08.2018 07:00:00 14,0 10,0 11 6 SW 10
17.08.2018 06:00:00 12,0 9,0 11 6 SW 10
17.08.2018 05:00:00 12,0 9,0 16 9 WSW 10
17.08.2018 04:00:00 - - - - - -
17.08.2018 03:00:00 11,0 9,0 8 4 SSW 10
17.08.2018 02:00:00 11,0 9,0 8 4 SSW 10
17.08.2018 01:00:00 12,0 10,0 11 6 SW 10
17.08.2018 00:00:00 12,0 10,0 9 5 WSW 10
16.08.2018 23:00:00 13,0 10,0 21 11 WSW 10
16.08.2018 22:00:00 13,0 10,0 13 7 WSW 10
16.08.2018 21:00:00 14,0 9,0 15 8 WSW 10
16.08.2018 20:00:00 15,0 10,0 21 11 WSW 10
16.08.2018 19:00:00 15,0 10,0 21 11 WSW 10
16.08.2018 18:00:00 15,0 11,0 18 10 WSW 10
16.08.2018 17:00:00 17,0 9,0 16 9 SW 10
16.08.2018 16:00:00 17,0 10,0 22 12 WSW 10
16.08.2018 15:00:00 18,0 9,0 26 14 WSW 10
16.08.2018 14:00:00 16,0 10,0 29 16 WSW 10
16.08.2018 13:00:00 16,0 9,0 22 12 W 10
16.08.2018 12:00:00 16,0 9,0 22 12 W 10
16.08.2018 11:00:00 16,0 9,0 21 11 W 10
16.08.2018 10:00:00 15,0 9,0 18 10 W 10
16.08.2018 09:00:00 13,0 10,0 18 10 W 10
16.08.2018 08:00:00 14,0 11,0 16 9 W 10
16.08.2018 07:00:00 14,0 12,0 11 6 WSW 10
16.08.2018 06:00:00 14,0 13,0 9 5 WSW 10
16.08.2018 05:00:00 14,0 13,0 8 4 SW 10
16.08.2018 04:00:00 15,0 14,0 8 4 SW 10
16.08.2018 03:00:00 15,0 14,0 16 9 WSW 10
16.08.2018 02:00:00 16,0 15,0 9 5 SW 7
16.08.2018 01:00:00 16,0 14,0 9 5 WSW 10
16.08.2018 00:00:00 16,0 14,0 8 4 SSW 10
15.08.2018 23:00:00 16,0 14,0 4 2 - 10
15.08.2018 22:00:00 15,0 14,0 5 3 S 10
15.08.2018 21:00:00 15,0 15,0 8 4 SSW 10
15.08.2018 20:00:00 16,0 14,0 26 14 W 5
15.08.2018 19:00:00 19,0 16,0 21 11 SW 10
15.08.2018 18:00:00 19,0 16,0 16 9 SW 8
15.08.2018 17:00:00 20,0 15,0 21 11 SW 7
15.08.2018 16:00:00 21,0 14,0 22 12 SW 10
15.08.2018 15:00:00 22,0 15,0 28 15 SW 10
15.08.2018 14:00:00 21,0 15,0 26 14 SW 10
15.08.2018 13:00:00 20,0 15,0 21 11 SW 10
15.08.2018 12:00:00 20,0 14,0 22 12 WSW 10
15.08.2018 11:00:00 20,0 15,0 18 10 SW 10
15.08.2018 10:00:00 20,0 15,0 21 11 SW 10
15.08.2018 09:00:00 19,0 14,0 15 8 SW 10
15.08.2018 08:00:00 18,0 14,0 13 7 SW 10
15.08.2018 07:00:00 17,0 14,0 5 3 - 10
15.08.2018 06:00:00 18,0 14,0 9 5 WSW 10
15.08.2018 05:00:00 17,0 15,0 2 1 - 10
15.08.2018 04:00:00 17,0 15,0 9 5 SW 10
15.08.2018 03:00:00 17,0 15,0 9 5 SSW 10
15.08.2018 02:00:00 17,0 15,0 8 4 SSW 10
15.08.2018 01:00:00 17,0 15,0 13 7 WSW 10
15.08.2018 00:00:00 17,0 15,0 8 4 WSW 10
14.08.2018 23:00:00 17,0 15,0 9 5 SW 10
14.08.2018 22:00:00 17,0 15,0 8 4 SW 10
14.08.2018 21:00:00 17,0 15,0 13 7 WSW 10
14.08.2018 20:00:00 18,0 15,0 11 6 WSW 10
14.08.2018 19:00:00 18,0 15,0 16 9 WSW 10
14.08.2018 18:00:00 19,0 14,0 13 7 WSW 10
14.08.2018 17:00:00 - - - - - -
14.08.2018 16:00:00 19,0 15,0 26 14 W 10
14.08.2018 15:00:00 18,0 15,0 13 7 W 10
14.08.2018 14:00:00 19,0 15,0 15 8 W 10
14.08.2018 13:00:00 18,0 14,0 16 9 W 10
14.08.2018 12:00:00 18,0 14,0 18 10 W 10
14.08.2018 11:00:00 18,0 14,0 9 5 WSW 10
14.08.2018 10:00:00 17,0 14,0 16 9 WSW 10
14.08.2018 09:00:00 16,0 13,0 11 6 WSW 10
14.08.2018 08:00:00 15,0 13,0 2 1 - 10
14.08.2018 07:00:00 14,0 13,0 15 8 W 10
14.08.2018 06:00:00 13,0 12,0 5 3 WSW 10
14.08.2018 05:00:00 13,0 12,0 9 5 W 10
14.08.2018 04:00:00 15,0 13,0 15 8 W 10
14.08.2018 03:00:00 15,0 14,0 16 9 W 10
14.08.2018 02:00:00 16,0 15,0 8 4 WSW 8
14.08.2018 01:00:00 15,0 15,0 0 0 N 10
14.08.2018 00:00:00 15,0 15,0 0 0 N 10
13.08.2018 23:00:00 15,0 14,0 0 0 N 10
13.08.2018 22:00:00 15,0 15,0 0 0 N 10
13.08.2018 21:00:00 16,0 15,0 0 0 N 10
13.08.2018 20:00:00 17,0 15,0 5 3 ENE 10

tt = temperature
td = dewpoint
ff = wind speed
dd = wind direction
vv = visibility

Next stations